Time;durP1;ratioP1;P1;durP2;ratioP2;P2;SDS_P1;SDS_P2;PMS_P1;PMS_P2;Temp;Humidity;BMP_temperature;BMP_pressure;BME280_temperature;BME280_humidity;BME280_pressure;Samples;Min_cycle;Max_cycle;Signal;HPM_P1;HPM_P2
2022/07/22 00:02:22;;;;;;;9.33;6.40;;;19.20;99.90;;;20.14;100.00;98542.53;5058581;28;20468;-79
2022/07/22 00:04:52;;;;;;;8.87;6.67;;;19.20;99.90;;;20.13;100.00;98535.63;5059615;28;20538;-79
2022/07/22 00:07:24;;;;;;;8.07;6.60;;;19.10;99.90;;;20.08;100.00;98536.34;5057753;28;20490;-78
2022/07/22 00:09:53;;;;;;;11.43;7.50;;;19.10;99.90;;;20.06;100.00;98532.31;5059058;28;20496;-79
2022/07/22 00:12:22;;;;;;;8.43;7.03;;;19.00;99.90;;;19.98;100.00;98530.03;5057370;28;20888;-79
2022/07/22 00:14:52;;;;;;;8.80;7.20;;;18.90;99.90;;;19.97;100.00;98528.41;5058804;28;20539;-80
2022/07/22 00:17:22;;;;;;;7.87;6.63;;;19.00;99.90;;;19.96;100.00;98534.75;5060788;28;20865;-79
2022/07/22 00:19:52;;;;;;;10.63;7.20;;;18.90;99.90;;;19.93;100.00;98525.41;5057989;28;21202;-79
2022/07/22 00:22:24;;;;;;;8.60;6.03;;;18.90;99.90;;;19.86;100.00;98526.56;5058559;28;20468;-79
2022/07/22 00:24:54;;;;;;;9.87;7.20;;;18.90;99.90;;;19.82;100.00;98523.56;5057359;28;21015;-79
2022/07/22 00:27:25;;;;;;;10.03;6.67;;;18.70;99.90;;;19.76;100.00;98521.06;5058924;28;20465;-79
2022/07/22 00:29:56;;;;;;;10.83;6.57;;;18.70;99.90;;;19.76;100.00;98521.06;5059498;28;20460;-79
2022/07/22 00:32:27;;;;;;;7.50;6.00;;;18.70;99.90;;;19.74;100.00;98523.97;5061149;28;20465;-79
2022/07/22 00:34:58;;;;;;;11.13;6.50;;;18.70;99.90;;;19.73;100.00;98527.66;5060542;28;20487;-79
2022/07/22 00:37:30;;;;;;;8.13;6.63;;;18.70;99.90;;;19.67;100.00;98517.97;5061945;28;20470;-79
2022/07/22 00:40:00;;;;;;;9.33;6.30;;;18.60;99.90;;;19.67;100.00;98517.16;5060776;28;20447;-79
2022/07/22 00:42:31;;;;;;;9.57;6.80;;;18.60;99.90;;;19.65;100.00;98517.38;5059425;28;20867;-79
2022/07/22 00:45:00;;;;;;;11.57;6.67;;;18.60;99.90;;;19.63;100.00;98522.13;5060089;28;21011;-80
2022/07/22 00:47:30;;;;;;;14.07;6.03;;;18.60;99.90;;;19.63;100.00;98522.13;5057569;28;20555;-79
2022/07/22 00:50:00;;;;;;;8.77;6.37;;;18.60;99.90;;;19.61;100.00;98510.13;5057706;28;20522;-78
2022/07/22 00:52:33;;;;;;;8.40;7.40;;;18.60;99.90;;;19.51;100.00;98514.16;5058080;28;20468;-79
2022/07/22 00:55:04;;;;;;;9.70;6.70;;;18.60;99.90;;;19.45;100.00;98525.72;5058946;28;20483;-78
2022/07/22 00:57:34;;;;;;;8.90;6.80;;;18.40;99.90;;;19.38;100.00;98524.19;5060273;28;20472;-79
2022/07/22 01:00:10;;;;;;;12.00;7.57;;;18.40;99.90;;;19.34;100.00;98518.53;5059771;28;20481;-79
2022/07/22 01:02:39;;;;;;;13.27;6.90;;;18.30;99.90;;;19.34;100.00;98513.22;5053612;28;20511;-79
2022/07/22 01:05:10;;;;;;;8.80;7.50;;;18.40;99.90;;;19.30;100.00;98517.38;5056021;28;20518;-79
2022/07/22 01:07:42;;;;;;;10.83;7.03;;;18.30;99.90;;;19.29;100.00;98526.41;5056024;28;20948;-78
2022/07/22 01:10:15;;;;;;;13.30;7.77;;;18.20;99.90;;;19.25;100.00;98519.13;5055842;28;20464;-79
2022/07/22 01:12:45;;;;;;;17.17;7.10;;;18.20;99.90;;;19.21;100.00;98521.44;5056413;28;21185;-79
2022/07/22 01:15:15;;;;;;;10.23;6.43;;;18.20;99.90;;;19.20;100.00;98516.34;5057132;28;20520;-79
2022/07/22 01:17:44;;;;;;;14.50;6.40;;;18.20;99.90;;;19.14;100.00;98518.09;5057894;28;20903;-79
2022/07/22 01:20:16;;;;;;;10.37;6.60;;;18.10;99.90;;;19.07;100.00;98518.19;5054907;28;20496;-79
2022/07/22 01:22:46;;;;;;;12.83;7.90;;;18.10;99.90;;;19.01;100.00;98508.50;5056014;28;20521;-79
2022/07/22 01:25:15;;;;;;;10.63;6.87;;;18.10;99.90;;;19.01;100.00;98518.31;5059605;28;20481;-78
2022/07/22 01:27:44;;;;;;;9.03;6.70;;;18.20;99.90;;;18.98;100.00;98519.59;5054926;28;20989;-79
2022/07/22 01:30:14;;;;;;;10.03;6.97;;;18.10;99.90;;;18.97;100.00;98523.25;5056696;28;20522;-79
2022/07/22 01:32:44;;;;;;;8.83;6.60;;;18.00;99.90;;;18.93;100.00;98521.28;5058186;28;20527;-79
2022/07/22 01:35:15;;;;;;;9.30;6.37;;;18.00;99.90;;;18.89;100.00;98520.13;5055851;28;20873;-79
2022/07/22 01:37:44;;;;;;;12.77;7.50;;;18.00;99.90;;;18.89;100.00;98517.47;5057513;28;20895;-79
2022/07/22 01:40:14;;;;;;;15.87;7.07;;;17.90;99.90;;;18.84;100.00;98520.00;5057775;28;20551;-78
2022/07/22 01:42:43;;;;;;;8.47;6.67;;;17.90;99.90;;;18.81;100.00;98525.78;5056187;28;20526;-79
2022/07/22 01:45:12;;;;;;;8.60;6.93;;;17.90;99.90;;;18.79;100.00;98528.63;5057394;28;20460;-78
2022/07/22 01:47:42;;;;;;;15.93;7.60;;;17.80;99.90;;;18.79;100.00;98525.19;5057691;28;20484;-79
2022/07/22 01:50:12;;;;;;;11.90;7.63;;;17.80;99.90;;;18.76;100.00;98530.94;5055991;28;21166;-79
2022/07/22 01:52:43;;;;;;;11.17;6.77;;;17.90;99.90;;;18.74;100.00;98528.53;5059807;28;20465;-79
2022/07/22 01:55:14;;;;;;;10.97;7.00;;;17.80;99.90;;;18.74;100.00;98527.72;5055585;28;21028;-79
2022/07/22 01:57:43;;;;;;;8.23;6.60;;;17.80;99.90;;;18.70;100.00;98534.50;5057414;28;20955;-78
2022/07/22 02:00:14;;;;;;;9.53;6.57;;;17.80;99.90;;;18.66;100.00;98528.03;5057871;28;20481;-79
2022/07/22 02:02:45;;;;;;;11.10;7.50;;;17.70;99.90;;;18.64;100.00;98535.41;5062206;28;20917;-79
2022/07/22 02:05:14;;;;;;;8.60;6.77;;;17.70;99.90;;;18.55;100.00;98534.91;5056533;28;20966;-79
2022/07/22 02:07:46;;;;;;;11.13;6.93;;;17.70;99.90;;;18.54;100.00;98534.09;5056507;28;20489;-79
2022/07/22 02:10:16;;;;;;;11.80;7.70;;;17.70;99.90;;;18.55;100.00;98530.44;5057764;28;20530;-79
2022/07/22 02:12:46;;;;;;;18.33;7.83;;;17.60;99.90;;;18.53;100.00;98526.41;5060108;28;20522;-78
2022/07/22 02:15:15;;;;;;;13.03;7.00;;;17.60;99.90;;;18.47;100.00;98536.00;5054703;28;20465;-79
2022/07/22 02:17:45;;;;;;;12.50;6.90;;;17.50;99.90;;;18.45;100.00;98530.13;5055801;28;20583;-79
2022/07/22 02:20:15;;;;;;;14.00;6.97;;;17.50;99.90;;;18.45;100.00;98531.97;5055616;28;21193;-79
2022/07/22 02:22:46;;;;;;;7.90;6.60;;;17.50;99.90;;;18.41;100.00;98530.81;5057710;28;20468;-79
2022/07/22 02:25:16;;;;;;;8.90;6.10;;;17.40;99.90;;;18.37;100.00;98532.28;5056250;28;20452;-79
2022/07/22 02:27:46;;;;;;;8.93;7.37;;;17.30;99.90;;;18.32;100.00;98530.31;5057903;28;20484;-79
2022/07/22 02:30:16;;;;;;;9.27;6.60;;;17.40;99.90;;;18.33;100.00;98525.81;5058561;28;20507;-79
2022/07/22 02:32:46;;;;;;;8.07;6.60;;;17.40;99.90;;;18.33;100.00;98531.91;5058915;28;20465;-79
2022/07/22 02:35:16;;;;;;;9.60;6.50;;;17.40;99.90;;;18.31;100.00;98528.69;5061608;28;20452;-79
2022/07/22 02:37:47;;;;;;;14.20;6.97;;;17.30;99.90;;;18.21;100.00;98528.44;5059220;28;20489;-79
2022/07/22 02:40:16;;;;;;;14.93;6.80;;;17.20;99.90;;;18.21;100.00;98528.44;5056084;28;20493;-78
2022/07/22 02:42:46;;;;;;;11.87;7.47;;;17.10;99.90;;;18.23;100.00;98531.66;5054644;28;20489;-79
2022/07/22 02:45:17;;;;;;;14.13;6.87;;;17.20;99.90;;;18.24;100.00;98522.69;5056425;28;21074;-79
2022/07/22 02:47:48;;;;;;;11.03;6.57;;;17.20;99.90;;;18.25;100.00;98529.59;5055012;28;20529;-79
2022/07/22 02:50:18;;;;;;;12.83;7.00;;;17.20;99.90;;;18.18;100.00;98528.06;5056658;28;21020;-79
2022/07/22 02:52:49;;;;;;;9.23;6.27;;;17.20;99.90;;;18.11;100.00;98528.16;5056088;28;20476;-79
2022/07/22 02:55:20;;;;;;;8.93;6.40;;;17.10;99.90;;;18.12;100.00;98535.03;5054725;28;20466;-79
2022/07/22 02:57:49;;;;;;;9.07;6.67;;;17.20;99.90;;;18.05;100.00;98529.03;5057661;28;20492;-79
2022/07/22 03:00:20;;;;;;;13.37;6.97;;;17.00;99.90;;;18.07;100.00;98526.97;5055880;28;20452;-79
2022/07/22 03:02:51;;;;;;;11.77;6.47;;;17.00;99.90;;;18.07;100.00;98527.78;5057088;28;20488;-79
2022/07/22 03:05:21;;;;;;;11.00;7.47;;;17.00;99.90;;;18.06;100.00;98531.47;5055851;28;20463;-82
2022/07/22 03:07:52;;;;;;;8.57;6.10;;;17.00;99.90;;;18.03;100.00;98531.09;5054592;28;20467;-83
2022/07/22 03:10:22;;;;;;;19.70;7.83;;;17.00;99.90;;;17.97;100.00;98532.00;5058181;28;21009;-80
2022/07/22 03:12:52;;;;;;;10.07;6.87;;;17.00;99.90;;;17.96;100.00;98530.38;5057876;28;20491;-79
2022/07/22 03:15:22;;;;;;;10.00;6.57;;;17.00;99.90;;;17.91;100.00;98530.25;5058757;28;20465;-79
2022/07/22 03:17:51;;;;;;;13.33;7.77;;;17.00;99.90;;;17.89;100.00;98532.28;5057387;28;20495;-79
2022/07/22 03:20:21;;;;;;;20.07;11.00;;;17.00;99.90;;;17.87;100.00;98535.16;5057488;28;20472;-82
2022/07/22 03:22:54;;;;;;;13.90;8.13;;;17.00;99.90;;;17.83;100.00;98538.47;5056341;28;20479;-79
2022/07/22 03:25:24;;;;;;;13.80;6.83;;;17.00;99.90;;;17.82;100.00;98535.00;5056254;28;20563;-79
2022/07/22 03:27:53;;;;;;;7.10;6.20;;;17.00;99.90;;;17.80;100.00;98530.97;5059914;28;20949;-78
2022/07/22 03:30:23;;;;;;;8.90;6.23;;;17.00;99.90;;;17.79;100.00;98529.34;5060775;28;20464;-79
2022/07/22 03:32:54;;;;;;;9.13;6.37;;;16.90;99.90;;;17.71;100.00;98527.81;5061455;28;20461;-78
2022/07/22 03:35:23;;;;;;;12.23;6.27;;;16.70;99.90;;;17.72;100.00;98528.63;5061280;28;20465;-79
2022/07/22 03:37:55;;;;;;;8.93;7.20;;;16.80;99.90;;;17.72;100.00;98520.69;5060984;28;20562;-78
2022/07/22 03:40:25;;;;;;;9.43;6.80;;;16.80;99.90;;;17.70;100.00;98522.75;5058006;28;20490;-78
2022/07/22 03:42:55;;;;;;;15.30;10.77;;;16.70;99.90;;;17.63;100.00;98516.72;5058962;28;20452;-81
2022/07/22 03:45:26;;;;;;;10.90;7.57;;;16.80;99.90;;;17.60;100.00;98512.66;5058980;28;20467;-79
2022/07/22 03:47:57;;;;;;;10.53;6.93;;;16.80;99.90;;;17.57;100.00;98510.47;5060995;28;20468;-79
2022/07/22 03:50:28;;;;;;;12.33;7.00;;;16.70;99.90;;;17.55;100.00;98513.31;5061696;28;20485;-79
2022/07/22 03:52:58;;;;;;;10.10;6.43;;;16.80;99.90;;;17.54;100.00;98514.31;5061819;28;20460;-78
2022/07/22 03:55:28;;;;;;;13.50;7.53;;;16.70;99.90;;;17.53;100.00;98509.25;5062842;28;20448;-79
2022/07/22 03:57:58;;;;;;;11.33;7.10;;;16.70;99.90;;;17.55;100.00;98518.59;5059688;28;20475;-79
2022/07/22 04:00:29;;;;;;;9.57;6.93;;;16.60;99.90;;;17.56;100.00;98520.22;5060106;28;20497;-79
2022/07/22 04:02:59;;;;;;;11.27;5.77;;;16.60;99.90;;;17.56;100.00;98522.88;5059005;28;20460;-79
2022/07/22 04:05:28;;;;;;;9.10;7.20;;;16.60;99.90;;;17.58;100.00;98517.38;5060263;28;20461;-79
2022/07/22 04:07:59;;;;;;;8.10;6.50;;;16.60;99.90;;;17.59;100.00;98527.75;5059899;28;20457;-79
2022/07/22 04:10:29;;;;;;;12.27;7.00;;;16.60;99.90;;;17.59;100.00;98525.09;5059981;28;20982;-83
2022/07/22 04:12:59;;;;;;;9.10;6.27;;;16.60;99.90;;;17.57;100.00;98529.78;5062104;28;20476;-79
2022/07/22 04:15:29;;;;;;;20.23;7.37;;;16.60;99.90;;;17.59;100.00;98532.22;5061938;28;20445;-78
2022/07/22 04:17:59;;;;;;;12.67;6.27;;;16.70;99.90;;;17.63;100.00;98535.25;5060612;28;20488;-78
2022/07/22 04:20:30;;;;;;;8.50;6.17;;;16.60;99.90;;;17.63;100.00;98536.06;5061174;28;21037;-82
2022/07/22 04:23:01;;;;;;;9.70;6.20;;;16.70;99.90;;;17.60;100.00;98534.63;5062121;28;20789;-78
2022/07/22 04:25:32;;;;;;;10.80;6.80;;;16.70;99.90;;;17.63;100.00;98529.94;5060585;28;20547;-78
2022/07/22 04:28:02;;;;;;;10.17;6.67;;;16.70;99.90;;;17.65;100.00;98523.41;5062253;28;20463;-78
2022/07/22 04:30:32;;;;;;;12.30;7.40;;;16.80;99.90;;;17.58;100.00;98523.47;5058177;28;20808;-78
2022/07/22 04:33:02;;;;;;;14.10;7.23;;;16.90;99.90;;;17.51;100.00;98516.59;5060862;28;21041;-78
2022/07/22 04:35:32;;;;;;;8.07;6.33;;;16.80;99.90;;;17.54;100.00;98516.16;5061234;28;20472;-78
2022/07/22 04:38:04;;;;;;;11.10;6.30;;;16.80;99.90;;;17.51;100.00;98517.41;5060212;28;20514;-78
2022/07/22 04:40:34;;;;;;;15.80;6.67;;;16.80;99.90;;;17.55;100.00;98529.19;5062630;28;20456;-78
2022/07/22 04:43:04;;;;;;;8.50;6.33;;;16.80;99.90;;;17.58;100.00;98523.47;5062579;28;20444;-79
2022/07/22 04:45:33;;;;;;;9.93;6.60;;;16.80;99.90;;;17.63;100.00;98519.38;5063435;28;20538;-78
2022/07/22 04:48:03;;;;;;;11.20;7.67;;;16.80;99.90;;;17.67;100.00;98520.53;5065580;28;20455;-78
2022/07/22 04:50:33;;;;;;;7.57;6.20;;;16.80;99.90;;;17.71;100.00;98514.56;5063446;28;20446;-79
2022/07/22 04:53:04;;;;;;;14.93;6.90;;;16.80;99.90;;;17.73;100.00;98509.06;5062744;28;20453;-78
2022/07/22 04:55:33;;;;;;;7.97;6.60;;;16.80;99.90;;;17.76;100.00;98508.63;5062684;28;21070;-78
2022/07/22 04:58:04;;;;;;;12.90;6.87;;;16.80;99.90;;;17.78;100.00;98507.38;5062794;28;20492;-79
2022/07/22 05:00:33;;;;;;;9.33;5.80;;;16.90;99.90;;;17.79;100.00;98503.72;5061914;28;20461;-78
2022/07/22 05:03:04;;;;;;;15.37;6.23;;;16.90;99.90;;;17.78;100.00;98501.28;5062875;28;20456;-79
2022/07/22 05:05:35;;;;;;;8.03;6.30;;;16.90;99.90;;;17.78;100.00;98504.72;5061591;28;20460;-78
2022/07/22 05:08:07;;;;;;;7.83;6.10;;;16.90;99.90;;;17.86;100.00;98498.34;5063300;28;20536;-78
2022/07/22 05:10:37;;;;;;;10.10;7.53;;;16.90;99.90;;;17.90;100.00;98502.16;5061419;28;21054;-78
2022/07/22 05:13:06;;;;;;;9.60;6.27;;;17.00;99.90;;;17.97;100.00;98500.25;5062769;28;20966;-78
2022/07/22 05:15:35;;;;;;;8.53;6.93;;;17.00;99.90;;;18.01;100.00;98498.75;5063213;28;20480;-79
2022/07/22 05:18:06;;;;;;;8.50;6.00;;;17.10;99.90;;;18.06;100.00;98499.69;5063276;28;20569;-79
2022/07/22 05:20:36;;;;;;;9.20;6.77;;;17.10;99.90;;;18.08;100.00;98507.44;5061204;28;20444;-79
2022/07/22 05:23:07;;;;;;;7.00;6.23;;;17.20;99.90;;;18.15;100.00;98497.56;5060605;28;20445;-78
2022/07/22 05:25:37;;;;;;;8.10;6.47;;;17.30;99.90;;;18.20;100.00;98500.31;5061789;28;21017;-78
2022/07/22 05:28:06;;;;;;;7.73;5.70;;;17.30;99.90;;;18.25;100.00;98499.66;5061896;28;20677;-78
2022/07/22 05:30:35;;;;;;;8.47;6.47;;;17.40;99.90;;;18.26;100.00;98499.41;5055890;28;20554;-79
2022/07/22 05:33:04;;;;;;;7.23;4.97;;;17.50;99.90;;;18.29;100.00;98493.66;5063067;28;20957;-78
2022/07/22 05:35:34;;;;;;;7.43;5.30;;;17.50;99.90;;;18.34;100.00;98500.94;5062303;28;20444;-78
2022/07/22 05:38:05;;;;;;;8.63;6.30;;;17.50;99.90;;;18.37;100.00;98500.50;5061873;28;20503;-79
2022/07/22 05:40:35;;;;;;;13.90;5.60;;;17.40;99.90;;;18.38;100.00;98508.22;5061100;28;20464;-78
2022/07/22 05:43:06;;;;;;;9.60;5.63;;;17.50;99.90;;;18.43;100.00;98500.41;5063062;28;20452;-79
2022/07/22 05:45:36;;;;;;;8.53;5.10;;;17.50;99.90;;;18.48;100.00;98497.91;5063498;28;20475;-78
2022/07/22 05:48:07;;;;;;;13.20;6.53;;;17.50;99.90;;;18.54;100.00;98501.50;5062007;28;20449;-78
2022/07/22 05:50:38;;;;;;;8.00;5.33;;;17.60;99.90;;;18.59;100.00;98499.00;5063131;28;20528;-79
2022/07/22 05:53:10;;;;;;;10.40;5.30;;;17.60;99.90;;;18.67;100.00;98497.88;5061090;28;20829;-79
2022/07/22 05:55:41;;;;;;;14.07;6.00;;;17.80;99.90;;;18.73;100.00;98504.91;5061895;28;20517;-79
2022/07/22 05:58:12;;;;;;;11.53;5.90;;;17.80;99.90;;;18.75;100.00;98497.50;5062269;28;20485;-78
2022/07/22 06:00:42;;;;;;;13.30;6.90;;;17.90;99.90;;;18.74;100.00;98495.91;5061700;28;20986;-79
2022/07/22 06:03:11;;;;;;;12.77;6.37;;;17.90;99.90;;;18.76;100.00;98501.78;5063960;28;20448;-79
2022/07/22 06:05:47;;;;;;;8.77;5.40;;;17.90;99.90;;;18.81;100.00;98501.91;5062392;28;20515;-78
2022/07/22 06:08:17;;;;;;;9.90;5.63;;;17.90;99.90;;;18.82;100.00;98509.63;5062084;28;20560;-78
2022/07/22 06:10:48;;;;;;;10.43;6.10;;;17.90;99.90;;;18.86;100.00;98504.69;5061319;28;21227;-78
2022/07/22 06:13:17;;;;;;;12.87;5.93;;;17.90;99.90;;;18.87;100.00;98507.13;5062502;28;20440;-78
2022/07/22 06:15:46;;;;;;;17.37;5.73;;;17.90;99.90;;;18.89;100.00;98515.63;5060438;28;20436;-78
2022/07/22 06:18:17;;;;;;;11.50;5.83;;;18.00;99.90;;;18.96;100.00;98502.28;5061737;28;20572;-78
2022/07/22 06:20:47;;;;;;;13.40;6.27;;;18.00;99.90;;;18.97;100.00;98506.53;5061953;28;20452;-78
2022/07/22 06:23:16;;;;;;;14.57;6.47;;;18.10;99.90;;;19.03;100.00;98498.47;5057970;28;20440;-78
2022/07/22 06:25:47;;;;;;;8.10;5.47;;;18.10;99.90;;;19.08;100.00;98503.09;5061704;28;20463;-79
2022/07/22 06:28:18;;;;;;;15.03;5.90;;;18.20;99.90;;;19.11;100.00;98505.28;5060393;28;20447;-79
2022/07/22 06:30:48;;;;;;;13.40;7.00;;;18.20;99.90;;;19.14;100.00;98507.47;5058677;28;20473;-79
2022/07/22 06:33:18;;;;;;;8.93;6.10;;;18.20;99.90;;;19.20;100.00;98490.63;5056607;28;20540;-79
2022/07/22 06:35:49;;;;;;;10.87;6.00;;;18.30;99.90;;;19.28;100.00;98498.25;5057050;28;20829;-79
2022/07/22 06:38:18;;;;;;;7.80;5.60;;;18.40;99.90;;;19.34;100.00;98493.84;5057310;28;20511;-79
2022/07/22 06:41:02;;;;;;;9.53;5.67;;;18.60;99.90;;;19.39;100.00;98494.78;5056839;28;20440;-79
2022/07/22 06:43:33;;;;;;;9.40;5.90;;;18.60;99.90;;;19.45;100.00;98493.88;5057813;28;20449;-79
2022/07/22 06:46:03;;;;;;;8.80;6.13;;;18.70;99.90;;;19.51;100.00;98487.63;5057825;28;20536;-79
2022/07/22 06:48:34;;;;;;;10.47;5.43;;;18.80;99.90;;;19.55;100.00;98483.47;5059990;28;20527;-79
2022/07/22 06:51:04;;;;;;;9.30;5.30;;;18.90;99.90;;;19.62;100.00;98487.84;5060625;28;20484;-79
2022/07/22 06:53:34;;;;;;;10.00;5.20;;;18.90;99.90;;;19.67;100.00;98480.81;5060485;28;20947;-79
2022/07/22 06:56:08;;;;;;;12.07;5.90;;;19.00;99.90;;;19.70;100.00;98479.53;5060863;28;20445;-80
2022/07/22 06:58:44;;;;;;;8.10;5.23;;;19.00;99.90;;;19.76;100.00;98486.56;5060541;28;20486;-79
2022/07/22 07:01:14;;;;;;;8.03;5.87;;;19.10;99.90;;;19.78;100.00;98481.84;5061259;28;20567;-79
2022/07/22 07:03:44;;;;;;;7.10;4.80;;;19.10;99.90;;;19.81;100.00;98476.88;5059375;28;20468;-79
2022/07/22 07:06:13;;;;;;;13.40;5.17;;;19.10;99.90;;;19.84;100.00;98487.00;5061760;28;20449;-79
2022/07/22 07:08:43;;;;;;;9.47;5.33;;;19.10;99.90;;;19.81;100.00;98492.78;5060910;28;20452;-79
2022/07/22 07:11:13;;;;;;;11.63;5.67;;;19.20;99.90;;;19.86;100.00;98486.75;5059160;28;20460;-80
2022/07/22 07:13:43;;;;;;;7.50;4.60;;;19.10;99.90;;;19.88;100.00;98488.16;5060450;28;20439;-79
2022/07/22 07:16:13;;;;;;;7.37;5.67;;;19.20;99.90;;;19.92;100.00;98483.19;5059881;28;20452;-80
2022/07/22 07:18:42;;;;;;;8.93;5.77;;;19.20;99.90;;;19.87;100.00;98480.41;5060023;28;21012;-79
2022/07/22 07:21:13;;;;;;;15.33;5.57;;;19.10;99.90;;;19.93;100.00;98484.75;5060692;28;20522;-79
2022/07/22 07:23:42;;;;;;;9.17;4.63;;;19.20;99.90;;;19.94;100.00;98481.88;5060614;28;20452;-79
2022/07/22 07:26:14;;;;;;;8.37;5.47;;;19.30;99.90;;;19.94;100.00;98484.53;5060476;28;20465;-79
2022/07/22 07:28:44;;;;;;;7.10;5.50;;;19.20;99.90;;;19.99;100.00;98478.53;5061933;28;20561;-79
2022/07/22 07:31:14;;;;;;;7.20;5.10;;;19.20;99.90;;;20.02;100.00;98478.06;5060582;28;20555;-79
2022/07/22 07:33:43;;;;;;;8.80;5.23;;;19.30;99.90;;;19.97;100.00;98469.97;5062063;28;20522;-79
2022/07/22 07:36:12;;;;;;;8.73;5.00;;;19.20;99.90;;;20.00;100.00;98459.69;5061601;28;20457;-79
2022/07/22 07:38:43;;;;;;;16.93;5.40;;;19.20;99.90;;;20.03;100.00;98464.53;5060493;28;20480;-79
2022/07/22 07:41:14;;;;;;;10.90;5.03;;;19.40;99.90;;;20.07;100.00;98459.56;5059911;28;20524;-79
2022/07/22 07:43:43;;;;;;;11.83;5.07;;;19.40;99.90;;;20.06;100.00;98463.28;5058078;28;20510;-79
2022/07/22 07:46:13;;;;;;;8.53;4.80;;;19.40;99.90;;;20.07;100.00;98454.25;5059709;28;20478;-80
2022/07/22 07:48:42;;;;;;;6.93;5.47;;;19.40;99.90;;;20.04;100.00;98454.72;5063544;28;21094;-79
2022/07/22 07:51:12;;;;;;;8.87;4.87;;;19.40;99.90;;;20.06;100.00;98452.66;5059693;28;20480;-79
2022/07/22 07:53:43;;;;;;;10.37;5.47;;;19.30;99.90;;;20.06;100.00;98450.78;5062304;28;20497;-79
2022/07/22 07:56:16;;;;;;;7.40;5.10;;;19.40;99.90;;;20.10;100.00;98456.41;5059907;28;20520;-79
2022/07/22 07:58:47;;;;;;;7.60;5.20;;;19.40;99.90;;;20.13;100.00;98448.00;5059774;28;20452;-78
2022/07/22 08:01:37;;;;;;;7.90;4.90;;;19.40;99.90;;;20.16;100.00;98441.41;5060100;28;20981;-79
2022/07/22 08:04:26;;;;;;;8.73;4.50;;;19.60;99.90;;;20.17;100.00;98435.84;5059160;28;20453;-78
2022/07/22 08:07:10;;;;;;;14.50;5.77;;;19.40;99.90;;;20.21;100.00;98433.50;5058683;28;20928;-79
2022/07/22 08:09:41;;;;;;;6.60;4.50;;;19.50;99.90;;;20.25;100.00;98434.63;5059768;28;20955;-79
2022/07/22 08:12:12;;;;;;;5.50;4.60;;;19.60;99.90;;;20.25;100.00;98430.13;5061724;28;20966;-79
2022/07/22 08:14:42;;;;;;;12.00;4.87;;;19.60;99.90;;;20.29;100.00;98436.63;5063918;28;20468;-78
2022/07/22 08:17:12;;;;;;;8.03;4.83;;;19.60;99.90;;;20.30;100.00;98440.91;5064061;28;20498;-79
2022/07/22 08:19:44;;;;;;;6.00;4.43;;;19.70;99.90;;;20.27;100.00;98428.06;5064138;28;20480;-79
2022/07/22 08:22:15;;;;;;;5.83;4.80;;;19.70;99.90;;;20.28;100.00;98424.38;5064038;28;20986;-79
2022/07/22 08:24:46;;;;;;;9.00;5.07;;;19.70;99.90;;;20.33;100.00;98439.59;5064366;28;20443;-78
2022/07/22 08:27:17;;;;;;;7.00;4.73;;;19.70;99.90;;;20.33;100.00;98432.44;5065274;28;20463;-79
2022/07/22 08:29:47;;;;;;;6.70;4.57;;;19.60;99.90;;;20.37;100.00;98430.94;5064027;28;20490;-79
2022/07/22 08:32:17;;;;;;;5.67;4.40;;;19.70;99.90;;;20.42;100.00;98430.19;5062461;28;20508;-78
2022/07/22 08:34:48;;;;;;;5.63;4.20;;;19.70;99.90;;;20.48;100.00;98429.22;5063584;28;20539;-78
2022/07/22 08:37:19;;;;;;;7.23;4.33;;;19.80;99.90;;;20.53;100.00;98427.47;5064482;28;20462;-79
2022/07/22 08:39:49;;;;;;;5.67;4.17;;;19.90;99.90;;;20.54;100.00;98423.78;5064355;28;21019;-79
2022/07/22 08:42:23;;;;;;;6.63;4.03;;;20.00;99.90;;;20.59;100.00;98421.16;5063854;28;20884;-78
2022/07/22 08:44:53;;;;;;;6.57;4.60;;;20.00;99.90;;;20.64;100.00;98411.69;5061409;28;20777;-79
2022/07/22 08:47:30;;;;;;;10.80;5.20;;;20.00;99.90;;;20.67;100.00;98412.00;5060041;28;20437;-79
2022/07/22 08:50:12;;;;;;;9.67;4.20;;;19.90;99.90;;;20.74;100.00;98417.16;5058727;28;20440;-79
2022/07/22 08:52:42;;;;;;;9.40;4.83;;;20.00;99.90;;;20.80;100.00;98416.16;5060617;28;20531;-79
2022/07/22 08:55:12;;;;;;;8.23;4.63;;;20.10;99.90;;;20.85;100.00;98413.59;5059816;28;20475;-79
2022/07/22 08:57:47;;;;;;;8.20;4.80;;;20.20;99.90;;;20.89;100.00;98418.19;5057615;28;20441;-78
2022/07/22 09:00:22;;;;;;;10.93;4.73;;;20.20;99.90;;;20.91;100.00;98412.63;5058157;28;20471;-79
2022/07/22 09:02:53;;;;;;;6.17;4.27;;;20.20;99.90;;;20.95;100.00;98408.41;5060625;28;20527;-79
2022/07/22 09:05:23;;;;;;;12.10;5.40;;;20.30;99.90;;;21.00;100.00;98411.94;5058562;28;20465;-79
2022/07/22 09:08:13;;;;;;;9.33;4.77;;;20.40;99.90;;;21.04;100.00;98413.06;5062214;28;20527;-79
2022/07/22 09:10:44;;;;;;;6.70;4.60;;;20.40;99.90;;;21.06;100.00;98411.00;5060131;28;20495;-78
2022/07/22 09:13:18;;;;;;;5.90;4.57;;;20.40;99.90;;;21.09;100.00;98415.00;5061222;28;20444;-79
2022/07/22 09:15:51;;;;;;;9.63;4.67;;;20.50;99.90;;;21.13;100.00;98412.69;5055513;28;20450;-79
2022/07/22 09:18:21;;;;;;;7.40;4.17;;;20.50;99.90;;;21.17;100.00;98406.66;5060352;28;20482;-79
2022/07/22 09:21:00;;;;;;;8.40;4.67;;;20.60;99.90;;;21.23;100.00;98408.31;5061036;28;20501;-79
2022/07/22 09:23:42;;;;;;;8.60;4.60;;;20.50;99.90;;;21.30;100.00;98406.28;5058403;28;20523;-80
2022/07/22 09:26:32;;;;;;;6.43;4.40;;;20.60;99.90;;;21.36;100.00;98410.59;5060198;28;20492;-79
2022/07/22 09:29:04;;;;;;;10.33;5.20;;;20.80;99.90;;;21.41;100.00;98413.34;5060106;28;20835;-79
2022/07/22 09:31:38;;;;;;;5.57;4.47;;;20.90;99.90;;;21.47;100.00;98401.69;5058810;28;20456;-80
2022/07/22 09:34:08;;;;;;;4.70;3.70;;;20.90;99.90;;;21.50;100.00;98406.53;5063030;28;20512;-80
2022/07/22 09:36:56;;;;;;;5.77;4.40;;;20.90;99.90;;;21.56;100.00;98394.06;5062343;28;20496;-79
2022/07/22 09:39:27;;;;;;;7.03;4.50;;;21.00;99.90;;;21.62;100.00;98394.94;5062240;28;20472;-80
2022/07/22 09:42:02;;;;;;;4.30;3.90;;;20.90;99.90;;;21.68;100.00;98391.28;5062045;28;20459;-80
2022/07/22 09:44:35;;;;;;;5.03;3.80;;;21.10;99.60;;;21.75;98.74;98383.91;5061694;28;20444;-79
2022/07/22 09:47:05;;;;;;;5.53;4.47;;;21.20;99.30;;;21.83;97.82;98388.78;5061845;28;20495;-80
2022/07/22 09:49:37;;;;;;;7.93;4.33;;;21.30;99.10;;;21.87;95.74;98388.00;5062394;28;20441;-80
2022/07/22 09:52:06;;;;;;;4.90;4.03;;;21.30;98.60;;;21.93;96.12;98379.06;5062170;28;20452;-79
2022/07/22 09:54:36;;;;;;;12.73;4.43;;;21.40;98.80;;;21.98;95.79;98376.44;5062077;28;20445;-80
2022/07/22 09:57:07;;;;;;;6.70;3.77;;;21.40;98.40;;;22.05;92.81;98365.59;5061332;28;20445;-80
2022/07/22 09:59:40;;;;;;;4.20;3.80;;;21.50;98.30;;;22.10;93.03;98367.50;5062442;28;20453;-80
2022/07/22 10:02:12;;;;;;;6.27;4.40;;;21.50;98.20;;;22.15;91.96;98363.00;5061022;28;20490;-80
2022/07/22 10:04:48;;;;;;;7.73;4.10;;;21.50;97.70;;;22.21;91.03;98366.53;5061792;28;20498;-80
2022/07/22 10:07:19;;;;;;;8.27;4.10;;;21.50;97.60;;;22.26;91.35;98355.91;5063144;28;20981;-80
2022/07/22 10:09:49;;;;;;;5.00;3.87;;;21.50;98.10;;;22.29;90.24;98350.88;5060910;28;20498;-80
2022/07/22 10:12:20;;;;;;;5.80;3.87;;;21.50;97.70;;;22.36;90.15;98348.78;5061886;28;20466;-80
2022/07/22 10:14:53;;;;;;;8.07;4.33;;;21.70;97.60;;;22.44;90.50;98343.00;5061170;28;20849;-80
2022/07/22 10:17:24;;;;;;;7.90;4.47;;;21.80;98.00;;;22.51;89.50;98348.09;5063149;28;20524;-80
2022/07/22 10:19:54;;;;;;;11.63;4.50;;;22.00;97.70;;;22.53;88.32;98337.97;5062524;28;20502;-80
2022/07/22 10:22:53;;;;;;;8.33;4.33;;;21.90;97.00;;;22.61;88.52;98342.84;5060113;28;20460;-80
2022/07/22 10:25:32;;;;;;;4.30;3.30;;;22.00;97.20;;;22.71;88.69;98334.94;5062133;28;20476;-80
2022/07/22 10:28:04;;;;;;;5.60;4.57;;;22.10;97.40;;;22.75;86.66;98337.88;5061308;28;20453;-80